Time;durP1;ratioP1;P1;durP2;ratioP2;P2;SDS_P1;SDS_P2;PMS_P1;PMS_P2;Temp;Humidity;BMP_temperature;BMP_pressure;BME280_temperature;BME280_humidity;BME280_pressure;Samples;Min_cycle;Max_cycle;Signal;HPM_P1;HPM_P2
2022/09/06 00:00:37;;;;;;;1.88;1.17;;;;;;;;;;5031320;28;20048;-66
2022/09/06 00:03:03;;;;;;;2.17;1.30;;;;;;;;;;5029440;28;20099;-66
2022/09/06 00:05:29;;;;;;;2.95;1.25;;;;;;;;;;5033690;28;20466;-66
2022/09/06 00:07:54;;;;;;;2.67;1.02;;;;;;;;;;5027862;28;20809;-65
2022/09/06 00:10:19;;;;;;;5.05;1.27;;;;;;;;;;5035941;28;20021;-66
2022/09/06 00:12:45;;;;;;;6.15;1.58;;;;;;;;;;5030202;28;20059;-66
2022/09/06 00:15:10;;;;;;;2.78;1.60;;;;;;;;;;5042434;28;20013;-66
2022/09/06 00:17:36;;;;;;;6.87;1.70;;;;;;;;;;5038046;28;20654;-66
2022/09/06 00:20:02;;;;;;;4.50;1.63;;;;;;;;;;5030405;28;20030;-66
2022/09/06 00:22:27;;;;;;;2.28;1.58;;;;;;;;;;5029615;28;20021;-66
2022/09/06 00:24:52;;;;;;;3.10;1.97;;;;;;;;;;5046256;23;20098;-65
2022/09/06 00:27:18;;;;;;;2.55;1.63;;;;;;;;;;5046940;28;20739;-65
2022/09/06 00:29:43;;;;;;;2.30;1.57;;;;;;;;;;5048522;28;20534;-65
2022/09/06 00:32:08;;;;;;;4.30;1.67;;;;;;;;;;5050933;28;20017;-65
2022/09/06 00:34:33;;;;;;;2.17;1.83;;;;;;;;;;5052550;28;20023;-64
2022/09/06 00:36:58;;;;;;;6.27;2.07;;;;;;;;;;5051185;28;20267;-64
2022/09/06 00:39:24;;;;;;;11.90;2.17;;;;;;;;;;5052716;28;20688;-64
2022/09/06 00:41:49;;;;;;;5.50;2.50;;;;;;;;;;5050495;28;20114;-65
2022/09/06 00:44:14;;;;;;;6.05;2.65;;;;;;;;;;5050416;28;20836;-65
2022/09/06 00:46:42;;;;;;;17.77;3.97;;;;;;;;;;5052260;28;20041;-65
2022/09/06 00:49:14;;;;;;;12.77;3.17;;;;;;;;;;5051405;28;20086;-65
2022/09/06 00:51:39;;;;;;;7.30;3.58;;;;;;;;;;5053498;28;20017;-65
2022/09/06 00:54:05;;;;;;;4.43;2.70;;;;;;;;;;5046851;28;20074;-65
2022/09/06 00:56:32;;;;;;;12.15;3.15;;;;;;;;;;5048928;28;20024;-65
2022/09/06 00:58:57;;;;;;;8.82;2.90;;;;;;;;;;5050988;28;20100;-65
2022/09/06 01:01:22;;;;;;;5.47;3.13;;;;;;;;;;5052782;28;20576;-65
2022/09/06 01:03:47;;;;;;;5.23;2.90;;;;;;;;;;5049569;28;20430;-64
2022/09/06 01:06:16;;;;;;;6.82;2.85;;;;;;;;;;5052201;28;20031;-65
2022/09/06 01:08:57;;;;;;;9.15;3.60;;;;;;;;;;5051089;28;20519;-64
2022/09/06 01:11:29;;;;;;;11.48;3.83;;;;;;;;;;5050495;28;20032;-65
2022/09/06 01:14:01;;;;;;;11.52;3.85;;;;;;;;;;5038376;28;20017;-64
2022/09/06 01:16:44;;;;;;;5.80;3.03;;;;;;;;;;5046397;28;20017;-65
2022/09/06 01:19:24;;;;;;;9.20;3.22;;;;;;;;;;5048858;28;20017;-64
2022/09/06 01:21:54;;;;;;;7.55;3.58;;;;;;;;;;5050672;28;20350;-64
2022/09/06 01:24:28;;;;;;;6.95;2.90;;;;;;;;;;5050497;28;20477;-64
2022/09/06 01:27:02;;;;;;;11.40;3.10;;;;;;;;;;5035330;28;20063;-64
2022/09/06 01:29:46;;;;;;;6.18;3.17;;;;;;;;;;5051948;28;20155;-64
2022/09/06 01:32:31;;;;;;;8.30;3.50;;;;;;;;;;5052130;28;20017;-64
2022/09/06 01:35:12;;;;;;;7.93;3.50;;;;;;;;;;5042126;28;20032;-64
2022/09/06 01:37:37;;;;;;;6.55;4.15;;;;;;;;;;5051255;28;20381;-65
2022/09/06 01:40:02;;;;;;;7.45;4.03;;;;;;;;;;5051145;28;20024;-65
2022/09/06 01:42:30;;;;;;;19.05;5.65;;;;;;;;;;5052393;28;20021;-65
2022/09/06 01:44:58;;;;;;;18.60;5.85;;;;;;;;;;5050016;28;20020;-65
2022/09/06 01:47:32;;;;;;;17.40;6.55;;;;;;;;;;5051602;28;20025;-64
2022/09/06 01:50:09;;;;;;;14.18;6.03;;;;;;;;;;5052378;28;20107;-64
2022/09/06 01:52:35;;;;;;;16.55;6.72;;;;;;;;;;5033340;28;20019;-64
2022/09/06 01:55:17;;;;;;;16.38;6.03;;;;;;;;;;5051649;28;20162;-64
2022/09/06 01:57:49;;;;;;;15.63;5.50;;;;;;;;;;5049931;28;20425;-64
2022/09/06 02:00:16;;;;;;;11.88;5.45;;;;;;;;;;5049926;28;20100;-65
2022/09/06 02:02:50;;;;;;;15.20;4.85;;;;;;;;;;5050602;28;20453;-64
2022/09/06 02:05:25;;;;;;;21.63;5.50;;;;;;;;;;5048935;28;20017;-65
2022/09/06 02:07:52;;;;;;;13.07;5.20;;;;;;;;;;5051764;28;20021;-64
2022/09/06 02:10:44;;;;;;;19.25;5.70;;;;;;;;;;5052331;28;20032;-64
2022/09/06 02:13:10;;;;;;;13.32;5.20;;;;;;;;;;5044709;28;20052;-64
2022/09/06 02:15:38;;;;;;;13.68;5.40;;;;;;;;;;5048720;28;20048;-64
2022/09/06 02:18:13;;;;;;;14.80;4.25;;;;;;;;;;5049655;28;20021;-64
2022/09/06 02:20:43;;;;;;;11.50;4.93;;;;;;;;;;5049958;28;20028;-64
2022/09/06 02:23:08;;;;;;;9.85;4.78;;;;;;;;;;5050032;28;20473;-64
2022/09/06 02:25:38;;;;;;;12.77;5.00;;;;;;;;;;5047795;28;20028;-64
2022/09/06 02:28:04;;;;;;;10.55;5.10;;;;;;;;;;5050398;28;20102;-64
2022/09/06 02:30:30;;;;;;;13.48;6.03;;;;;;;;;;5048284;28;20057;-64
2022/09/06 02:33:01;;;;;;;15.02;4.45;;;;;;;;;;5049398;28;20009;-64
2022/09/06 02:35:27;;;;;;;13.55;4.90;;;;;;;;;;5047216;28;20017;-64
2022/09/06 02:37:52;;;;;;;11.52;4.97;;;;;;;;;;5046798;28;20026;-64
2022/09/06 02:40:18;;;;;;;9.43;4.90;;;;;;;;;;5048499;28;20021;-64
2022/09/06 02:42:43;;;;;;;15.15;6.07;;;;;;;;;;5049350;28;20075;-64
2022/09/06 02:45:08;;;;;;;14.00;5.10;;;;;;;;;;5047387;28;20013;-64
2022/09/06 02:47:33;;;;;;;11.45;4.90;;;;;;;;;;5050575;28;20150;-64
2022/09/06 02:49:59;;;;;;;9.27;4.93;;;;;;;;;;5050540;28;20036;-64
2022/09/06 02:52:24;;;;;;;11.82;4.90;;;;;;;;;;5031105;28;20276;-64
2022/09/06 02:54:50;;;;;;;14.47;6.10;;;;;;;;;;5046601;28;20366;-64
2022/09/06 02:57:15;;;;;;;12.63;4.65;;;;;;;;;;5048786;28;20150;-64
2022/09/06 02:59:40;;;;;;;11.23;4.20;;;;;;;;;;5050222;28;20106;-64
2022/09/06 03:02:06;;;;;;;8.80;4.30;;;;;;;;;;5048277;28;20287;-64
2022/09/06 03:04:31;;;;;;;11.40;5.13;;;;;;;;;;5046852;28;20032;-64
2022/09/06 03:06:57;;;;;;;12.18;5.07;;;;;;;;;;5050752;28;20528;-64
2022/09/06 03:09:22;;;;;;;14.70;5.18;;;;;;;;;;5046185;28;20052;-64
2022/09/06 03:11:47;;;;;;;14.07;6.07;;;;;;;;;;5049707;28;20087;-64
2022/09/06 03:14:15;;;;;;;11.80;5.77;;;;;;;;;;5047116;28;20897;-64
2022/09/06 03:16:40;;;;;;;13.65;5.90;;;;;;;;;;5047621;28;20303;-64
2022/09/06 03:19:05;;;;;;;22.23;6.20;;;;;;;;;;5049842;28;20086;-64
2022/09/06 03:21:30;;;;;;;13.07;6.60;;;;;;;;;;5049514;28;20282;-64
2022/09/06 03:23:57;;;;;;;15.85;7.30;;;;;;;;;;5047986;28;20035;-64
2022/09/06 03:26:22;;;;;;;14.77;6.15;;;;;;;;;;5046137;28;20049;-64
2022/09/06 03:28:49;;;;;;;19.87;6.20;;;;;;;;;;5048381;28;20068;-64
2022/09/06 03:31:14;;;;;;;14.73;6.22;;;;;;;;;;5050190;28;20092;-64
2022/09/06 03:33:39;;;;;;;16.50;5.90;;;;;;;;;;5046556;28;20024;-64
2022/09/06 03:36:04;;;;;;;10.85;6.07;;;;;;;;;;5048380;28;20020;-64
2022/09/06 03:38:30;;;;;;;9.15;5.47;;;;;;;;;;5049426;28;20059;-64
2022/09/06 03:40:55;;;;;;;19.20;6.40;;;;;;;;;;5049661;28;20033;-64
2022/09/06 03:43:21;;;;;;;12.98;5.57;;;;;;;;;;5050405;28;20310;-64
2022/09/06 03:45:48;;;;;;;11.00;6.05;;;;;;;;;;5048455;28;20025;-64
2022/09/06 03:48:13;;;;;;;12.15;5.80;;;;;;;;;;5048399;28;20059;-64
2022/09/06 03:50:43;;;;;;;12.32;5.57;;;;;;;;;;5047847;28;20482;-64
2022/09/06 03:53:08;;;;;;;12.85;5.70;;;;;;;;;;5048319;28;20707;-64
2022/09/06 03:55:33;;;;;;;7.10;4.57;;;;;;;;;;5040431;28;20100;-64
2022/09/06 03:57:58;;;;;;;16.80;5.00;;;;;;;;;;5039376;28;20279;-64
2022/09/06 04:00:23;;;;;;;15.57;5.40;;;;;;;;;;5042761;28;20276;-64
2022/09/06 04:02:48;;;;;;;15.73;6.50;;;;;;;;;;5042744;28;20098;-64
2022/09/06 04:05:15;;;;;;;9.27;5.22;;;;;;;;;;5046849;28;20324;-64
2022/09/06 04:07:41;;;;;;;10.23;5.18;;;;;;;;;;5046626;28;20021;-64
2022/09/06 04:10:06;;;;;;;13.00;6.00;;;;;;;;;;5047602;28;20032;-64
2022/09/06 04:12:33;;;;;;;8.48;5.05;;;;;;;;;;5049870;28;20013;-64
2022/09/06 04:14:58;;;;;;;18.02;5.68;;;;;;;;;;5047201;28;20487;-64
2022/09/06 04:17:23;;;;;;;8.47;5.37;;;;;;;;;;5045168;28;20025;-64
2022/09/06 04:19:49;;;;;;;7.60;5.03;;;;;;;;;;5046731;28;20032;-64
2022/09/06 04:22:14;;;;;;;12.60;4.80;;;;;;;;;;5049050;28;20032;-64
2022/09/06 04:24:39;;;;;;;8.37;5.13;;;;;;;;;;5046686;28;20279;-64
2022/09/06 04:27:04;;;;;;;12.00;5.10;;;;;;;;;;5048139;28;20026;-64
2022/09/06 04:29:29;;;;;;;11.25;5.35;;;;;;;;;;5047706;28;20021;-64
2022/09/06 04:31:55;;;;;;;10.90;4.77;;;;;;;;;;5045942;28;20025;-64
2022/09/06 04:34:20;;;;;;;9.50;5.07;;;;;;;;;;5047365;28;20271;-64
2022/09/06 04:36:45;;;;;;;12.60;5.27;;;;;;;;;;5047403;28;20025;-64
2022/09/06 04:39:10;;;;;;;11.48;5.30;;;;;;;;;;5047834;28;20043;-64
2022/09/06 04:41:35;;;;;;;11.67;5.23;;;;;;;;;;5048317;28;20488;-64
2022/09/06 04:44:01;;;;;;;10.60;5.07;;;;;;;;;;5047886;28;20322;-64
2022/09/06 04:46:27;;;;;;;14.38;6.30;;;;;;;;;;5047378;28;20354;-64
2022/09/06 04:48:53;;;;;;;13.50;5.63;;;;;;;;;;5046164;28;20052;-64
2022/09/06 04:51:18;;;;;;;12.85;4.95;;;;;;;;;;5047556;28;20071;-64
2022/09/06 04:53:44;;;;;;;14.85;5.90;;;;;;;;;;5049300;28;20025;-64
2022/09/06 04:56:14;;;;;;;13.05;6.15;;;;;;;;;;5047504;28;20074;-64
2022/09/06 04:58:40;;;;;;;11.20;6.20;;;;;;;;;;5046762;28;20029;-64
2022/09/06 05:01:05;;;;;;;9.32;5.60;;;;;;;;;;5045196;28;20386;-64
2022/09/06 05:03:30;;;;;;;14.27;6.60;;;;;;;;;;5047425;28;20065;-64
2022/09/06 05:06:05;;;;;;;11.40;6.10;;;;;;;;;;5048354;28;20496;-64
2022/09/06 05:08:30;;;;;;;11.63;6.30;;;;;;;;;;5045741;28;20025;-64
2022/09/06 05:10:56;;;;;;;12.67;6.10;;;;;;;;;;5048778;28;20385;-64
2022/09/06 05:13:21;;;;;;;11.67;6.53;;;;;;;;;;5043996;28;20017;-64
2022/09/06 05:15:46;;;;;;;11.43;5.53;;;;;;;;;;5047444;28;20259;-64
2022/09/06 05:18:11;;;;;;;15.13;6.30;;;;;;;;;;5048945;28;20020;-64
2022/09/06 05:20:36;;;;;;;12.65;5.95;;;;;;;;;;5044480;28;20271;-64
2022/09/06 05:23:02;;;;;;;9.32;6.30;;;;;;;;;;5049605;28;20023;-64
2022/09/06 05:25:27;;;;;;;9.50;5.80;;;;;;;;;;5050047;28;20033;-64
2022/09/06 05:27:52;;;;;;;12.77;5.47;;;;;;;;;;5050006;28;20488;-64
2022/09/06 05:30:18;;;;;;;27.08;8.02;;;;;;;;;;5050140;28;20306;-64
2022/09/06 05:32:43;;;;;;;30.73;8.75;;;;;;;;;;5038823;28;20008;-64
2022/09/06 05:35:08;;;;;;;11.70;6.38;;;;;;;;;;5051998;28;20017;-64
2022/09/06 05:37:34;;;;;;;12.70;5.47;;;;;;;;;;5051367;28;20021;-64
2022/09/06 05:40:00;;;;;;;10.83;5.10;;;;;;;;;;5050264;28;20385;-64
2022/09/06 05:42:25;;;;;;;12.60;5.78;;;;;;;;;;5052005;28;20036;-64
2022/09/06 05:44:50;;;;;;;13.20;5.60;;;;;;;;;;5050703;28;20033;-64
2022/09/06 05:47:16;;;;;;;10.40;5.47;;;;;;;;;;5041381;28;20561;-64
2022/09/06 05:49:41;;;;;;;12.03;5.37;;;;;;;;;;5043516;28;20055;-64
2022/09/06 05:52:06;;;;;;;15.55;5.20;;;;;;;;;;5046192;28;20079;-64
2022/09/06 05:54:31;;;;;;;9.97;4.63;;;;;;;;;;5048838;28;20017;-64
2022/09/06 05:56:56;;;;;;;9.00;4.83;;;;;;;;;;5042869;28;20093;-64
2022/09/06 05:59:21;;;;;;;10.93;4.83;;;;;;;;;;5048414;28;20260;-64
2022/09/06 06:01:48;;;;;;;7.73;4.13;;;;;;;;;;5048509;28;20288;-64
2022/09/06 06:04:13;;;;;;;8.35;4.45;;;;;;;;;;5047864;28;20318;-64
2022/09/06 06:06:38;;;;;;;8.03;4.47;;;;;;;;;;5046156;28;20060;-64
2022/09/06 06:09:03;;;;;;;6.23;3.73;;;;;;;;;;5047099;28;20032;-64
2022/09/06 06:11:29;;;;;;;6.35;3.67;;;;;;;;;;5047053;28;20062;-64
2022/09/06 06:13:55;;;;;;;7.10;3.85;;;;;;;;;;5047352;28;20032;-64
2022/09/06 06:16:21;;;;;;;8.45;3.85;;;;;;;;;;5046827;28;20017;-64
2022/09/06 06:18:47;;;;;;;10.27;4.15;;;;;;;;;;5047078;28;20507;-64
2022/09/06 06:21:14;;;;;;;8.05;3.75;;;;;;;;;;5047332;28;20139;-64
2022/09/06 06:23:40;;;;;;;6.53;3.20;;;;;;;;;;5048177;28;20140;-64
2022/09/06 06:26:05;;;;;;;13.75;3.90;;;;;;;;;;5045088;28;20116;-65
2022/09/06 06:28:31;;;;;;;13.27;3.67;;;;;;;;;;5044381;28;20037;-65
2022/09/06 06:30:56;;;;;;;8.93;3.50;;;;;;;;;;5047708;28;20017;-64
2022/09/06 06:33:21;;;;;;;6.45;3.85;;;;;;;;;;5043414;28;20052;-64
2022/09/06 06:35:56;;;;;;;7.60;3.70;;;;;;;;;;5049275;28;20163;-65
2022/09/06 06:38:21;;;;;;;5.88;2.88;;;;;;;;;;5046523;28;20324;-65
2022/09/06 06:40:46;;;;;;;11.73;3.47;;;;;;;;;;5050593;28;20025;-65
2022/09/06 06:43:12;;;;;;;4.13;2.93;;;;;;;;;;5048734;28;20493;-65
2022/09/06 06:45:37;;;;;;;15.77;3.23;;;;;;;;;;5046260;28;20139;-65
2022/09/06 06:48:02;;;;;;;9.30;2.83;;;;;;;;;;5048743;28;20029;-65
2022/09/06 06:50:27;;;;;;;5.67;2.93;;;;;;;;;;5049880;28;20033;-65
2022/09/06 06:52:53;;;;;;;7.57;3.07;;;;;;;;;;5046871;28;20013;-66
2022/09/06 06:55:18;;;;;;;4.88;2.80;;;;;;;;;;5044776;28;20278;-65
2022/09/06 06:57:43;;;;;;;5.50;3.10;;;;;;;;;;5048834;28;20032;-66
2022/09/06 07:00:09;;;;;;;14.32;3.58;;;;;;;;;;5047114;28;20033;-65
2022/09/06 07:02:34;;;;;;;6.63;2.55;;;;;;;;;;5038743;28;20108;-66
2022/09/06 07:05:00;;;;;;;5.23;2.67;;;;;;;;;;5048144;28;20028;-66
2022/09/06 07:07:25;;;;;;;4.87;2.47;;;;;;;;;;5045850;28;20027;-67
2022/09/06 07:09:50;;;;;;;7.57;2.27;;;;;;;;;;5048970;28;20283;-66
2022/09/06 07:12:15;;;;;;;7.72;2.53;;;;;;;;;;5050895;28;20045;-66
2022/09/06 07:14:41;;;;;;;6.10;2.60;;;;;;;;;;5042905;28;20021;-66
2022/09/06 07:17:06;;;;;;;6.20;3.10;;;;;;;;;;5046239;28;20367;-66
2022/09/06 07:19:31;;;;;;;7.60;2.40;;;;;;;;;;5047212;28;20112;-66
2022/09/06 07:21:57;;;;;;;10.63;2.20;;;;;;;;;;5047292;28;20064;-66
2022/09/06 07:24:22;;;;;;;5.55;2.50;;;;;;;;;;5046318;28;20028;-66
2022/09/06 07:26:47;;;;;;;6.03;2.23;;;;;;;;;;5049078;28;20025;-66
2022/09/06 07:29:12;;;;;;;4.17;1.97;;;;;;;;;;5049187;28;20478;-66
2022/09/06 07:31:38;;;;;;;5.47;2.23;;;;;;;;;;5048108;28;20078;-66
2022/09/06 07:34:04;;;;;;;4.90;1.67;;;;;;;;;;5046733;28;20564;-66
2022/09/06 07:36:29;;;;;;;2.92;1.52;;;;;;;;;;5048821;28;20021;-66
2022/09/06 07:38:54;;;;;;;3.50;1.73;;;;;;;;;;5047685;28;20021;-66
2022/09/06 07:41:20;;;;;;;3.33;1.93;;;;;;;;;;5048125;28;20267;-67
2022/09/06 07:43:46;;;;;;;6.82;1.70;;;;;;;;;;5049226;28;20543;-66
2022/09/06 07:46:12;;;;;;;6.78;2.10;;;;;;;;;;5045703;28;20067;-67
2022/09/06 07:48:39;;;;;;;2.17;1.20;;;;;;;;;;5049215;28;20032;-66
2022/09/06 07:51:05;;;;;;;6.85;1.80;;;;;;;;;;5049233;28;20358;-68
2022/09/06 07:53:31;;;;;;;6.47;1.80;;;;;;;;;;5049719;28;20032;-66
2022/09/06 07:55:56;;;;;;;7.23;1.63;;;;;;;;;;5048104;28;20020;-66
2022/09/06 07:58:22;;;;;;;4.57;1.60;;;;;;;;;;5049235;28;20445;-67
2022/09/06 08:00:47;;;;;;;4.95;1.45;;;;;;;;;;5047332;28;20060;-67
2022/09/06 08:03:12;;;;;;;5.30;1.73;;;;;;;;;;5046476;28;20048;-67
2022/09/06 08:05:37;;;;;;;9.73;1.50;;;;;;;;;;5047517;28;20315;-67
2022/09/06 08:08:03;;;;;;;2.53;1.17;;;;;;;;;;5049879;28;20639;-67
2022/09/06 08:10:28;;;;;;;2.27;1.30;;;;;;;;;;5044585;28;20032;-67
2022/09/06 08:12:56;;;;;;;2.37;1.13;;;;;;;;;;5048888;28;20029;-67
2022/09/06 08:15:21;;;;;;;5.55;1.33;;;;;;;;;;5045343;28;20021;-69
2022/09/06 08:17:47;;;;;;;3.23;0.77;;;;;;;;;;5043627;28;20021;-66
2022/09/06 08:20:12;;;;;;;1.80;0.73;;;;;;;;;;5042062;28;20028;-66
2022/09/06 08:22:37;;;;;;;0.70;0.50;;;;;;;;;;5044886;28;20048;-65
2022/09/06 08:25:03;;;;;;;2.83;0.90;;;;;;;;;;5046698;28;20643;-66
2022/09/06 08:27:28;;;;;;;3.88;1.13;;;;;;;;;;5047678;28;20723;-65
2022/09/06 08:29:53;;;;;;;8.43;0.90;;;;;;;;;;5048803;28;20112;-67
2022/09/06 08:32:18;;;;;;;4.00;1.00;;;;;;;;;;5047544;28;20033;-65
2022/09/06 08:34:43;;;;;;;2.08;0.80;;;;;;;;;;5046117;28;20104;-65
2022/09/06 08:37:08;;;;;;;2.87;0.70;;;;;;;;;;5047407;28;20028;-66
2022/09/06 08:39:34;;;;;;;1.13;0.53;;;;;;;;;;5045606;28;20108;-66
2022/09/06 08:42:05;;;;;;;1.03;0.87;;;;;;;;;;5047700;28;20020;-65
2022/09/06 08:44:34;;;;;;;4.57;1.08;;;;;;;;;;5047180;28;20287;-66
2022/09/06 08:47:01;;;;;;;2.28;0.60;;;;;;;;;;5047146;28;20028;-65
2022/09/06 08:49:28;;;;;;;3.88;0.90;;;;;;;;;;5047533;28;20374;-65
2022/09/06 08:52:12;;;;;;;3.15;0.60;;;;;;;;;;5049044;28;20066;-64
2022/09/06 08:54:47;;;;;;;6.35;0.65;;;;;;;;;;5051054;28;20032;-66
2022/09/06 08:57:28;;;;;;;4.55;0.93;;;;;;;;;;5049547;28;20493;-66
2022/09/06 08:59:56;;;;;;;3.38;0.90;;;;;;;;;;5049627;28;20486;-64
2022/09/06 09:02:21;;;;;;;1.50;0.68;;;;;;;;;;5051853;28;20525;-64
2022/09/06 09:05:05;;;;;;;1.80;0.90;;;;;;;;;;5052323;28;20166;-67
2022/09/06 09:07:49;;;;;;;1.10;0.60;;;;;;;;;;5044880;28;20063;-67
2022/09/06 09:10:17;;;;;;;1.38;0.68;;;;;;;;;;5042407;28;20108;-66
2022/09/06 09:12:46;;;;;;;1.13;0.63;;;;;;;;;;5052559;28;20104;-65
2022/09/06 09:15:12;;;;;;;4.17;0.70;;;;;;;;;;5047428;28;20017;-65
2022/09/06 09:17:38;;;;;;;2.92;0.80;;;;;;;;;;5050272;28;20072;-65
2022/09/06 09:20:05;;;;;;;2.33;0.90;;;;;;;;;;5049889;28;20067;-65
2022/09/06 09:22:30;;;;;;;5.30;0.98;;;;;;;;;;5051165;28;20044;-66
2022/09/06 09:24:56;;;;;;;1.03;0.60;;;;;;;;;;5048460;28;20048;-66
2022/09/06 09:27:24;;;;;;;1.73;0.90;;;;;;;;;;5050124;28;20481;-65
2022/09/06 09:29:52;;;;;;;7.68;0.90;;;;;;;;;;5047111;28;20021;-66
2022/09/06 09:32:28;;;;;;;0.93;0.70;;;;;;;;;;5047273;28;20032;-66
2022/09/06 09:34:53;;;;;;;1.58;0.80;;;;;;;;;;5049560;28;20021;-66
2022/09/06 09:37:23;;;;;;;1.30;0.80;;;;;;;;;;5051298;28;20078;-65
2022/09/06 09:39:48;;;;;;;;;;;;;;;;;;5050026;28;20029;-66
2022/09/06 09:42:22;;;;;;;1.15;0.65;;;;;;;;;;5051270;28;19970;-65
2022/09/06 09:44:47;;;;;;;3.13;0.65;;;;;;;;;;5051370;28;20025;-64
2022/09/06 09:47:27;;;;;;;1.07;0.63;;;;;;;;;;5049304;28;20016;-66
2022/09/06 09:49:52;;;;;;;2.25;0.90;;;;;;;;;;5049084;28;20287;-66
2022/09/06 09:52:22;;;;;;;1.77;1.02;;;;;;;;;;5048885;28;20028;-65
2022/09/06 09:54:52;;;;;;;1.38;1.05;;;;;;;;;;5052503;28;20021;-65
2022/09/06 09:57:17;;;;;;;4.68;0.80;;;;;;;;;;5048790;28;20009;-65
2022/09/06 09:59:44;;;;;;;3.15;0.70;;;;;;;;;;5047350;28;20037;-65
2022/09/06 10:02:37;;;;;;;1.63;0.90;;;;;;;;;;5050469;28;20021;-65
2022/09/06 10:05:03;;;;;;;3.15;1.10;;;;;;;;;;5037431;28;20029;-65
2022/09/06 10:07:29;;;;;;;1.73;0.93;;;;;;;;;;5047731;28;20362;-65
2022/09/06 10:09:58;;;;;;;7.13;0.82;;;;;;;;;;5049140;28;20287;-65
2022/09/06 10:12:28;;;;;;;5.57;1.10;;;;;;;;;;5047070;28;20461;-65
2022/09/06 10:14:54;;;;;;;2.40;0.60;;;;;;;;;;5050801;28;20368;-65
2022/09/06 10:17:19;;;;;;;2.20;1.00;;;;;;;;;;5052377;28;20009;-66
2022/09/06 10:19:45;;;;;;;5.53;1.00;;;;;;;;;;5049722;28;20029;-65
2022/09/06 10:22:22;;;;;;;4.53;1.00;;;;;;;;;;5048296;28;20366;-66
2022/09/06 10:24:56;;;;;;;1.58;0.82;;;;;;;;;;5045024;28;20448;-66
2022/09/06 10:27:24;;;;;;;4.32;1.05;;;;;;;;;;5018973;28;20021;-65
2022/09/06 10:29:54;;;;;;;2.10;0.90;;;;;;;;;;5047103;28;20098;-66
2022/09/06 10:32:32;;;;;;;7.28;0.80;;;;;;;;;;5048732;28;20543;-66
2022/09/06 10:35:03;;;;;;;1.40;1.00;;;;;;;;;;5049469;28;20025;-65
2022/09/06 10:37:41;;;;;;;2.72;1.10;;;;;;;;;;5049563;28;20052;-65
2022/09/06 10:40:10;;;;;;;4.10;1.10;;;;;;;;;;5047816;28;20028;-65
2022/09/06 10:42:46;;;;;;;1.80;1.15;;;;;;;;;;5058536;28;20013;-65
2022/09/06 10:45:19;;;;;;;3.20;1.20;;;;;;;;;;5047485;28;20493;-67
2022/09/06 10:48:00;;;;;;;7.22;0.93;;;;;;;;;;5049720;28;20082;-68
2022/09/06 10:50:44;;;;;;;5.45;1.25;;;;;;;;;;5047943;28;20017;-65
2022/09/06 10:53:13;;;;;;;4.93;1.45;;;;;;;;;;5044271;28;20029;-65
2022/09/06 10:55:40;;;;;;;2.05;0.80;;;;;;;;;;5046365;28;20489;-66
2022/09/06 10:58:05;;;;;;;2.88;0.80;;;;;;;;;;5036547;28;20025;-66
2022/09/06 11:00:42;;;;;;;3.93;1.20;;;;;;;;;;5044735;28;20248;-65
2022/09/06 11:03:30;;;;;;;6.07;1.10;;;;;;;;;;5049136;28;20340;-65
2022/09/06 11:05:58;;;;;;;6.03;1.42;;;;;;;;;;5039094;28;20029;-67
2022/09/06 11:08:23;;;;;;;3.72;1.40;;;;;;;;;;5026975;28;20021;-65
2022/09/06 11:10:50;;;;;;;2.50;1.40;;;;;;;;;;5045706;28;20028;-66
2022/09/06 11:13:16;;;;;;;3.95;1.40;;;;;;;;;;5046146;28;20021;-67
2022/09/06 11:15:41;;;;;;;4.68;1.00;;;;;;;;;;5048645;28;20025;-65
2022/09/06 11:18:12;;;;;;;7.00;1.67;;;;;;;;;;5048938;28;20167;-66
2022/09/06 11:20:43;;;;;;;1.58;1.00;;;;;;;;;;5044634;28;20445;-67
2022/09/06 11:23:21;;;;;;;8.85;1.52;;;;;;;;;;5048298;28;20150;-66
2022/09/06 11:26:04;;;;;;;5.10;1.40;;;;;;;;;;5045943;28;20021;-66
2022/09/06 11:28:41;;;;;;;2.72;1.15;;;;;;;;;;5043013;28;20032;-66
2022/09/06 11:31:08;;;;;;;3.17;1.20;;;;;;;;;;5043840;28;21442;-65
2022/09/06 11:33:35;;;;;;;11.38;1.83;;;;;;;;;;5049327;28;20040;-67
2022/09/06 11:36:18;;;;;;;4.60;2.22;;;;;;;;;;5045141;28;20354;-65
2022/09/06 11:38:54;;;;;;;4.45;1.10;;;;;;;;;;5048485;28;20056;-68
2022/09/06 11:41:19;;;;;;;4.85;1.40;;;;;;;;;;5046925;28;20023;-66
2022/09/06 11:43:48;;;;;;;2.35;1.13;;;;;;;;;;5044172;28;20107;-65
2022/09/06 11:46:32;;;;;;;5.70;1.15;;;;;;;;;;5046692;28;20044;-65
2022/09/06 11:49:07;;;;;;;5.28;1.15;;;;;;;;;;5043143;28;20025;-65
2022/09/06 11:51:40;;;;;;;6.28;1.20;;;;;;;;;;5044753;28;20017;-66
2022/09/06 11:54:18;;;;;;;8.45;1.20;;;;;;;;;;5044812;28;20100;-65
2022/09/06 11:56:43;;;;;;;3.78;1.25;;;;;;;;;;5042290;28;20027;-65
2022/09/06 11:59:17;;;;;;;2.22;0.98;;;;;;;;;;5027961;28;20381;-65
2022/09/06 12:02:12;;;;;;;7.55;1.50;;;;;;;;;;5041944;28;20374;-66
2022/09/06 12:04:55;;;;;;;4.00;1.35;;;;;;;;;;5024775;28;20489;-65
2022/09/06 12:07:21;;;;;;;3.22;1.65;;;;;;;;;;5052405;28;20028;-67
2022/09/06 12:09:46;;;;;;;8.43;1.03;;;;;;;;;;5047571;28;20021;-67
2022/09/06 12:12:31;;;;;;;4.30;1.47;;;;;;;;;;5050958;28;20063;-66
2022/09/06 12:14:56;;;;;;;2.88;1.00;;;;;;;;;;5045963;28;20029;-65
2022/09/06 12:17:23;;;;;;;5.13;1.00;;;;;;;;;;5043807;28;20079;-65
2022/09/06 12:20:05;;;;;;;6.40;1.80;;;;;;;;;;5045893;28;21263;-68
2022/09/06 12:22:31;;;;;;;2.50;1.40;;;;;;;;;;5046600;28;20055;-66
2022/09/06 12:25:02;;;;;;;4.10;1.60;;;;;;;;;;5055924;23;20515;-68
2022/09/06 12:27:29;;;;;;;7.38;1.48;;;;;;;;;;5041993;28;20494;-73
2022/09/06 12:30:00;;;;;;;10.52;1.50;;;;;;;;;;5046277;28;20060;-67
2022/09/06 12:32:46;;;;;;;2.53;1.30;;;;;;;;;;5050956;28;20086;-67
2022/09/06 12:35:13;;;;;;;7.90;1.50;;;;;;;;;;5062674;28;20515;-68
2022/09/06 12:37:53;;;;;;;8.63;1.45;;;;;;;;;;5056567;28;20032;-72
2022/09/06 12:40:19;;;;;;;6.53;1.42;;;;;;;;;;5061295;28;20082;-68
2022/09/06 12:42:46;;;;;;;10.02;1.42;;;;;;;;;;5054723;28;20028;-69
2022/09/06 12:45:11;;;;;;;6.10;1.27;;;;;;;;;;5066930;28;20385;-72
2022/09/06 12:47:36;;;;;;;6.40;1.97;;;;;;;;;;5062682;28;20017;-71
2022/09/06 12:50:06;;;;;;;3.75;1.65;;;;;;;;;;5072731;28;20352;-67
2022/09/06 12:52:32;;;;;;;10.60;1.77;;;;;;;;;;5067756;28;20021;-67
2022/09/06 12:54:57;;;;;;;2.77;1.20;;;;;;;;;;5069002;28;20032;-68
2022/09/06 12:57:23;;;;;;;7.05;2.20;;;;;;;;;;5057817;28;20523;-67
2022/09/06 12:59:53;;;;;;;5.22;1.85;;;;;;;;;;5060237;28;20082;-70
2022/09/06 13:02:39;;;;;;;9.63;1.40;;;;;;;;;;5062820;28;20081;-67
2022/09/06 13:05:07;;;;;;;7.97;1.40;;;;;;;;;;5069204;28;20491;-71
2022/09/06 13:07:34;;;;;;;9.70;1.83;;;;;;;;;;5064292;28;20021;-69
2022/09/06 13:10:00;;;;;;;3.97;1.52;;;;;;;;;;5068777;28;20111;-72
2022/09/06 13:12:33;;;;;;;6.38;2.03;;;;;;;;;;5065007;28;20017;-70
2022/09/06 13:15:31;;;;;;;8.75;1.60;;;;;;;;;;5064233;28;20032;-67
2022/09/06 13:18:15;;;;;;;4.10;1.42;;;;;;;;;;5017516;28;20093;-67
2022/09/06 13:20:40;;;;;;;4.68;1.60;;;;;;;;;;5062478;28;20099;-67
2022/09/06 13:23:08;;;;;;;5.35;1.30;;;;;;;;;;5062022;28;20124;-68
2022/09/06 13:25:33;;;;;;;9.23;1.30;;;;;;;;;;5053634;28;20028;-67
2022/09/06 13:28:00;;;;;;;5.15;1.38;;;;;;;;;;5065600;28;20082;-67
2022/09/06 13:30:31;;;;;;;3.10;1.02;;;;;;;;;;5071981;28;20017;-69
2022/09/06 13:32:57;;;;;;;6.90;1.67;;;;;;;;;;5060749;28;20429;-67
2022/09/06 13:35:23;;;;;;;7.35;2.47;;;;;;;;;;5058614;28;20052;-68
2022/09/06 13:37:48;;;;;;;4.53;1.30;;;;;;;;;;5064407;28;20036;-69
2022/09/06 13:40:32;;;;;;;2.67;0.90;;;;;;;;;;5072620;28;20024;-69
2022/09/06 13:43:00;;;;;;;3.80;1.20;;;;;;;;;;5069301;28;20036;-67
2022/09/06 13:45:26;;;;;;;7.28;1.40;;;;;;;;;;5064728;28;20108;-67
2022/09/06 13:47:52;;;;;;;4.40;1.40;;;;;;;;;;5056674;28;20392;-67
2022/09/06 13:50:17;;;;;;;7.55;1.40;;;;;;;;;;5071353;28;20024;-67
2022/09/06 13:52:43;;;;;;;4.85;1.70;;;;;;;;;;5066208;28;20033;-70
2022/09/06 13:55:12;;;;;;;10.40;1.23;;;;;;;;;;5059601;28;20024;-73
2022/09/06 13:57:38;;;;;;;2.50;1.23;;;;;;;;;;5062486;28;20044;-68
2022/09/06 14:00:03;;;;;;;3.08;0.90;;;;;;;;;;5065466;28;20365;-69
2022/09/06 14:02:28;;;;;;;5.78;1.70;;;;;;;;;;5065387;28;20024;-68
2022/09/06 14:04:54;;;;;;;2.95;1.10;;;;;;;;;;5069847;28;20515;-67
2022/09/06 14:07:19;;;;;;;2.90;1.00;;;;;;;;;;5064662;28;20062;-67
2022/09/06 14:09:44;;;;;;;4.20;1.00;;;;;;;;;;5064708;28;20246;-67
2022/09/06 14:12:09;;;;;;;3.08;1.20;;;;;;;;;;5071359;28;20089;-68
2022/09/06 14:14:35;;;;;;;1.55;1.00;;;;;;;;;;5063256;28;20013;-67
2022/09/06 14:17:00;;;;;;;3.97;1.48;;;;;;;;;;5056966;28;20020;-70
2022/09/06 14:19:25;;;;;;;6.67;1.83;;;;;;;;;;5065927;28;20028;-70
2022/09/06 14:21:51;;;;;;;9.40;1.50;;;;;;;;;;5060986;28;20035;-69
2022/09/06 14:24:16;;;;;;;3.47;1.20;;;;;;;;;;5064321;28;20028;-65
2022/09/06 14:26:41;;;;;;;8.23;1.10;;;;;;;;;;5052318;28;20028;-71
2022/09/06 14:29:07;;;;;;;3.83;1.17;;;;;;;;;;5054906;28;20081;-65
2022/09/06 14:31:32;;;;;;;6.10;1.25;;;;;;;;;;5059236;28;20350;-70
2022/09/06 14:33:58;;;;;;;3.30;1.50;;;;;;;;;;5058677;28;20021;-70
2022/09/06 14:36:25;;;;;;;2.65;1.38;;;;;;;;;;5062562;28;20032;-65
2022/09/06 14:38:50;;;;;;;5.03;1.23;;;;;;;;;;5062769;28;20832;-66
2022/09/06 14:41:17;;;;;;;10.75;1.95;;;;;;;;;;5069942;28;20095;-66
2022/09/06 14:43:42;;;;;;;7.63;2.10;;;;;;;;;;5063582;28;20669;-68